createdAt,value
2023-01-08T00:00:52.912Z,-0.77
2023-01-08T00:03:23.685Z,-0.75
2023-01-08T00:05:53.384Z,-0.73
2023-01-08T00:08:23.619Z,-0.69
2023-01-08T00:10:56.519Z,-0.71
2023-01-08T00:13:26.319Z,-0.68
2023-01-08T00:15:56.527Z,-0.72
2023-01-08T00:18:27.347Z,-0.79
2023-01-08T00:20:56.521Z,-0.77
2023-01-08T00:23:26.001Z,-0.71
2023-01-08T00:25:55.211Z,-0.65
2023-01-08T00:28:24.665Z,-0.60
2023-01-08T00:30:54.524Z,-0.58
2023-01-08T00:33:23.917Z,-0.57
2023-01-08T00:35:54.831Z,-0.58
2023-01-08T00:38:27.772Z,-0.55
2023-01-08T00:40:57.069Z,-0.51
2023-01-08T00:43:26.206Z,-0.49
2023-01-08T00:45:55.517Z,-0.43
2023-01-08T00:48:25.885Z,-0.41
2023-01-08T00:50:56.961Z,-0.39
2023-01-08T00:53:26.175Z,-0.36
2023-01-08T00:56:02.161Z,-0.32
2023-01-08T00:58:31.949Z,-0.29
2023-01-08T01:01:01.556Z,-0.30
2023-01-08T01:03:33.296Z,-0.27
2023-01-08T01:06:04.856Z,-0.29
2023-01-08T01:08:34.491Z,-0.27
2023-01-08T01:11:09.211Z,-0.28
2023-01-08T01:13:38.351Z,-0.28
2023-01-08T01:16:08.392Z,-0.30
2023-01-08T01:18:37.848Z,-0.28
2023-01-08T01:21:13.666Z,-0.29
2023-01-08T01:23:42.830Z,-0.28
2023-01-08T01:26:18.538Z,-0.28
2023-01-08T01:28:49.888Z,-0.29
2023-01-08T01:31:20.619Z,-0.31
2023-01-08T01:33:51.121Z,-0.30
2023-01-08T01:36:24.219Z,-0.30
2023-01-08T01:38:55.692Z,-0.29
2023-01-08T01:41:29.447Z,-0.30
2023-01-08T01:44:00.446Z,-0.25
2023-01-08T01:46:38.632Z,-0.38
2023-01-08T01:49:12.031Z,-0.42
2023-01-08T01:51:50.093Z,-0.48
2023-01-08T01:54:19.633Z,-0.44
2023-01-08T01:56:49.111Z,-0.49
2023-01-08T01:59:20.261Z,-0.52
2023-01-08T02:01:50.828Z,-0.60
2023-01-08T02:04:19.950Z,-0.68
2023-01-08T02:07:00.779Z,-0.80
2023-01-08T02:09:43.263Z,-0.73
2023-01-08T02:12:19.483Z,-0.68
2023-01-08T02:15:01.551Z,-0.59
2023-01-08T02:17:38.659Z,-0.57
2023-01-08T02:20:12.843Z,-0.50
2023-01-08T02:23:18.061Z,-0.72
2023-01-08T02:26:24.853Z,-0.78
2023-01-08T02:29:00.041Z,-0.78
2023-01-08T02:31:32.575Z,-0.85
2023-01-08T02:34:02.118Z,-0.74
2023-01-08T02:36:39.260Z,-0.82
2023-01-08T02:39:36.595Z,-0.83
2023-01-08T02:42:15.032Z,-0.66
2023-01-08T02:44:56.879Z,-0.74
2023-01-08T02:47:34.405Z,-0.47
2023-01-08T02:50:15.061Z,-0.67
2023-01-08T02:52:54.039Z,-0.80
2023-01-08T02:55:25.296Z,-1.09
2023-01-08T02:57:56.354Z,-1.02
2023-01-08T03:00:25.898Z,-1.15
2023-01-08T03:03:08.596Z,-1.16
2023-01-08T03:05:40.734Z,-1.17
2023-01-08T03:08:11.219Z,-1.13
2023-01-08T03:10:44.246Z,-1.20
2023-01-08T03:13:21.586Z,-1.26
2023-01-08T03:15:56.386Z,-1.23
2023-01-08T03:18:34.200Z,-1.23
2023-01-08T03:21:05.006Z,-1.06
2023-01-08T03:23:37.313Z,-1.13
2023-01-08T03:26:08.087Z,-1.10
2023-01-08T03:28:45.387Z,-1.13
2023-01-08T03:31:17.207Z,-1.11
2023-01-08T03:33:48.490Z,-1.13
2023-01-08T03:36:23.247Z,-1.22
2023-01-08T03:38:59.919Z,-1.20
2023-01-08T03:41:33.722Z,-1.25
2023-01-08T03:44:04.642Z,-1.28
2023-01-08T03:46:48.525Z,-1.31
2023-01-08T03:49:18.899Z,-1.41
2023-01-08T03:51:49.069Z,-1.46
2023-01-08T03:54:21.626Z,-1.48
2023-01-08T03:56:51.098Z,-1.51
2023-01-08T03:59:21.532Z,-1.52
2023-01-08T04:01:50.800Z,-1.53
2023-01-08T04:04:20.153Z,-1.54
2023-01-08T04:06:49.525Z,-1.56
2023-01-08T04:09:18.705Z,-1.51
2023-01-08T04:11:47.845Z,-1.58
2023-01-08T04:14:16.973Z,-1.65
2023-01-08T04:16:50.240Z,-1.63
2023-01-08T04:19:19.446Z,-1.54
2023-01-08T04:21:50.966Z,-1.48
2023-01-08T04:24:20.947Z,-1.39
2023-01-08T04:26:50.282Z,-1.41
2023-01-08T04:29:19.403Z,-1.43
2023-01-08T04:31:50.011Z,-1.40
2023-01-08T04:34:19.103Z,-1.49
2023-01-08T04:36:48.433Z,-1.45
2023-01-08T04:39:17.813Z,-1.48
2023-01-08T04:41:46.967Z,-1.56
2023-01-08T04:44:16.047Z,-1.54
2023-01-08T04:46:45.274Z,-1.46
2023-01-08T04:49:16.231Z,-1.49
2023-01-08T04:51:45.385Z,-1.42
2023-01-08T04:54:14.632Z,-1.47
2023-01-08T04:56:43.807Z,-1.45
2023-01-08T04:59:13.092Z,-1.43
2023-01-08T05:01:42.373Z,-1.43
2023-01-08T05:04:12.832Z,-1.36
2023-01-08T05:06:43.412Z,-1.29
2023-01-08T05:09:12.985Z,-1.26
2023-01-08T05:11:43.319Z,-1.28
2023-01-08T05:14:12.703Z,-1.24
2023-01-08T05:16:41.926Z,-1.21
2023-01-08T05:19:11.050Z,-1.18
2023-01-08T05:21:40.273Z,-1.16
2023-01-08T05:24:11.042Z,-1.18
2023-01-08T05:26:40.223Z,-1.17
2023-01-08T05:29:09.389Z,-1.14
2023-01-08T05:31:38.600Z,-1.18
2023-01-08T05:34:07.670Z,-1.15
2023-01-08T05:36:36.764Z,-1.11
2023-01-08T05:39:05.956Z,-1.13
2023-01-08T05:41:36.491Z,-1.22
2023-01-08T05:44:06.046Z,-1.18
2023-01-08T05:46:35.290Z,-1.24
2023-01-08T05:49:04.464Z,-1.29
2023-01-08T05:51:33.659Z,-1.34
2023-01-08T05:54:02.823Z,-1.52
2023-01-08T05:56:32.381Z,-1.61
2023-01-08T05:59:03.062Z,-1.69
2023-01-08T06:01:34.599Z,-1.76
2023-01-08T06:04:04.188Z,-1.81
2023-01-08T06:06:33.535Z,-1.74
2023-01-08T06:09:02.662Z,-1.65
2023-01-08T06:11:31.860Z,-1.61
2023-01-08T06:14:02.424Z,-1.61
2023-01-08T06:16:31.508Z,-1.56
2023-01-08T06:19:00.655Z,-1.59
2023-01-08T06:21:29.789Z,-1.58
2023-01-08T06:23:58.885Z,-1.57
2023-01-08T06:26:28.057Z,-1.76
2023-01-08T06:28:57.307Z,-1.87
2023-01-08T06:31:28.040Z,-1.88
2023-01-08T06:33:57.183Z,-1.69
2023-01-08T06:36:26.380Z,-1.65
2023-01-08T06:38:55.904Z,-1.77
2023-01-08T06:41:25.152Z,-1.81
2023-01-08T06:43:54.420Z,-1.74
2023-01-08T06:46:23.739Z,-1.65
2023-01-08T06:48:54.268Z,-1.59
2023-01-08T06:51:23.407Z,-1.62
2023-01-08T06:53:53.328Z,-1.64
2023-01-08T06:56:22.386Z,-1.75
2023-01-08T06:58:51.566Z,-1.77
2023-01-08T07:01:25.729Z,-1.69
2023-01-08T07:03:57.453Z,-1.57
2023-01-08T07:06:26.637Z,-1.47
2023-01-08T07:08:55.974Z,-1.39
2023-01-08T07:11:25.433Z,-1.41
2023-01-08T07:13:56.625Z,-1.43
2023-01-08T07:16:25.886Z,-1.31
2023-01-08T07:18:56.517Z,-1.26
2023-01-08T07:21:25.665Z,-1.15
2023-01-08T07:23:54.897Z,-1.08
2023-01-08T07:26:24.137Z,-1.06
2023-01-08T07:28:53.695Z,-1.19
2023-01-08T07:31:23.009Z,-1.21
2023-01-08T07:33:52.296Z,-1.13
2023-01-08T07:36:24.381Z,-0.99
2023-01-08T07:38:53.512Z,-1.00
2023-01-08T07:41:22.740Z,-1.08
2023-01-08T07:43:55.233Z,-1.14
2023-01-08T07:46:24.463Z,-1.05
2023-01-08T07:48:53.692Z,-0.79
2023-01-08T07:51:24.580Z,-0.94
2023-01-08T07:53:56.239Z,-0.93
2023-01-08T07:56:26.210Z,-0.80
2023-01-08T07:58:55.362Z,-0.92
2023-01-08T08:01:26.299Z,-0.91
2023-01-08T08:03:55.469Z,-0.85
2023-01-08T08:06:26.057Z,-0.71
2023-01-08T08:08:58.261Z,-0.68
2023-01-08T08:11:27.477Z,-0.66
2023-01-08T08:13:56.822Z,-0.69
2023-01-08T08:16:26.104Z,-0.60
2023-01-08T08:18:55.341Z,-0.54
2023-01-08T08:21:26.089Z,-0.52
2023-01-08T08:23:55.169Z,-0.52
2023-01-08T08:26:24.819Z,-0.50
2023-01-08T08:28:53.973Z,-0.46
2023-01-08T08:31:23.294Z,-0.39
2023-01-08T08:33:52.405Z,-0.35
2023-01-08T08:36:21.846Z,-0.20
2023-01-08T08:38:52.668Z,-0.06
2023-01-08T08:41:21.939Z,0.16
2023-01-08T08:43:52.553Z,0.22
2023-01-08T08:46:21.950Z,0.07
2023-01-08T08:48:51.166Z,0.00
2023-01-08T08:51:20.314Z,-0.04
2023-01-08T08:53:49.576Z,0.06
2023-01-08T08:56:20.417Z,0.07
2023-01-08T08:58:50.822Z,0.05
2023-01-08T09:01:20.062Z,-0.08
2023-01-08T09:03:49.926Z,-0.20
2023-01-08T09:06:19.036Z,-0.21
2023-01-08T09:08:48.246Z,-0.37
2023-01-08T09:11:17.615Z,-0.30
2023-01-08T09:13:48.252Z,-0.19
2023-01-08T09:16:17.546Z,-0.10
2023-01-08T09:18:47.314Z,-0.06
2023-01-08T09:21:17.046Z,0.05
2023-01-08T09:23:46.557Z,0.20
2023-01-08T09:26:16.806Z,0.33
2023-01-08T09:28:50.728Z,0.45
2023-01-08T09:31:20.152Z,0.64
2023-01-08T09:33:52.393Z,0.82
2023-01-08T09:36:27.340Z,0.98
2023-01-08T09:38:56.877Z,1.29
2023-01-08T09:41:30.377Z,1.36
2023-01-08T09:44:04.121Z,1.52
2023-01-08T09:46:33.816Z,1.61
2023-01-08T09:49:09.213Z,1.73
2023-01-08T09:51:40.434Z,1.32
2023-01-08T09:54:16.303Z,1.27
2023-01-08T09:56:47.699Z,1.35
2023-01-08T09:59:20.273Z,1.39
2023-01-08T10:01:50.292Z,1.46
2023-01-08T10:04:21.822Z,1.70
2023-01-08T10:06:55.500Z,1.81
2023-01-08T10:09:29.399Z,1.68
2023-01-08T10:12:06.316Z,1.59
2023-01-08T10:14:48.061Z,1.52
2023-01-08T10:17:28.423Z,1.40
2023-01-08T10:20:00.740Z,1.58
2023-01-08T10:22:34.551Z,1.75
2023-01-08T10:25:14.234Z,1.86
2023-01-08T10:27:52.750Z,2.03
2023-01-08T10:30:41.516Z,2.02
2023-01-08T10:33:19.343Z,2.10
2023-01-08T10:35:57.255Z,2.05
2023-01-08T10:38:33.588Z,2.07
2023-01-08T10:41:07.052Z,2.21
2023-01-08T10:43:46.674Z,2.15
2023-01-08T10:46:25.335Z,2.08
2023-01-08T10:48:58.279Z,2.12
2023-01-08T10:51:31.849Z,2.08
2023-01-08T10:54:14.078Z,2.20
2023-01-08T10:56:45.967Z,2.55
2023-01-08T10:59:20.457Z,2.91
2023-01-08T11:01:53.540Z,3.12
2023-01-08T11:04:28.167Z,3.34
2023-01-08T11:07:00.031Z,3.52
2023-01-08T11:09:33.787Z,3.73
2023-01-08T11:12:03.226Z,3.97
2023-01-08T11:14:35.691Z,4.18
2023-01-08T11:17:13.068Z,4.36
2023-01-08T11:19:42.281Z,4.37
2023-01-08T11:22:21.635Z,4.28
2023-01-08T11:24:52.306Z,4.07
2023-01-08T11:27:31.890Z,3.96
2023-01-08T11:30:08.036Z,3.88
2023-01-08T11:32:49.425Z,3.85
2023-01-08T11:35:22.308Z,3.70
2023-01-08T11:37:55.534Z,3.46
2023-01-08T11:40:38.625Z,3.00
2023-01-08T11:43:26.144Z,2.97
2023-01-08T11:46:27.009Z,3.16
2023-01-08T11:49:29.117Z,3.27
2023-01-08T11:52:25.451Z,3.66
2023-01-08T11:55:25.384Z,3.83
2023-01-08T11:58:12.162Z,4.12
2023-01-08T12:00:58.707Z,4.30
2023-01-08T12:03:37.546Z,4.54
2023-01-08T12:06:21.130Z,4.88
2023-01-08T12:09:01.187Z,5.15
2023-01-08T12:11:32.767Z,5.17
2023-01-08T12:14:21.405Z,5.11
2023-01-08T12:17:12.943Z,5.00
2023-01-08T12:20:01.447Z,5.05
2023-01-08T12:22:47.608Z,5.61
2023-01-08T12:25:47.931Z,5.95
2023-01-08T12:28:49.679Z,5.77
2023-01-08T12:32:05.018Z,5.66
2023-01-08T12:34:48.872Z,5.31
2023-01-08T12:37:24.527Z,5.27
2023-01-08T12:40:07.171Z,5.29
2023-01-08T12:42:47.201Z,5.15
2023-01-08T12:45:28.393Z,5.02
2023-01-08T12:48:04.159Z,4.92
2023-01-08T12:50:45.488Z,4.97
2023-01-08T12:53:28.089Z,5.06
2023-01-08T12:56:06.681Z,5.02
2023-01-08T12:58:51.494Z,4.63
2023-01-08T13:01:38.117Z,4.69
2023-01-08T13:04:10.689Z,4.95
2023-01-08T13:06:54.004Z,5.35
2023-01-08T13:09:29.060Z,5.38
2023-01-08T13:12:01.968Z,5.31
2023-01-08T13:14:48.166Z,5.21
2023-01-08T13:17:21.415Z,4.96
2023-01-08T13:19:56.799Z,4.77
2023-01-08T13:22:29.228Z,4.61
2023-01-08T13:25:31.647Z,4.49
2023-01-08T13:28:18.988Z,4.35
2023-01-08T13:30:50.062Z,4.21
2023-01-08T13:33:40.447Z,4.12
2023-01-08T13:36:23.748Z,4.00
2023-01-08T13:39:23.500Z,3.85
2023-01-08T13:42:07.075Z,3.70
2023-01-08T13:44:42.625Z,3.52
2023-01-08T13:47:23.485Z,3.34
2023-01-08T13:49:56.467Z,3.21
2023-01-08T13:52:34.864Z,3.14
2023-01-08T13:55:13.214Z,3.09
2023-01-08T13:57:46.811Z,2.95
2023-01-08T14:00:25.530Z,2.92
2023-01-08T14:02:58.894Z,2.87
2023-01-08T14:05:30.678Z,2.84
2023-01-08T14:08:00.379Z,2.80
2023-01-08T14:10:33.405Z,2.74
2023-01-08T14:13:09.811Z,2.71
2023-01-08T14:15:41.065Z,2.65
2023-01-08T14:18:16.807Z,2.63
2023-01-08T14:20:50.172Z,2.61
2023-01-08T14:23:25.019Z,2.59
2023-01-08T14:25:55.287Z,2.51
2023-01-08T14:28:25.003Z,2.45
2023-01-08T14:30:59.650Z,2.42
2023-01-08T14:33:34.654Z,2.29
2023-01-08T14:36:08.549Z,2.26
2023-01-08T14:38:41.001Z,2.30
2023-01-08T14:41:14.724Z,2.23
2023-01-08T14:43:46.594Z,2.27
2023-01-08T14:46:23.588Z,2.28
2023-01-08T14:48:54.544Z,2.14
2023-01-08T14:51:27.745Z,2.10
2023-01-08T14:54:01.942Z,2.01
2023-01-08T14:56:38.853Z,2.03
2023-01-08T14:59:10.457Z,1.94
2023-01-08T15:01:42.019Z,1.87
2023-01-08T15:04:19.112Z,1.92
2023-01-08T15:06:50.829Z,1.91
2023-01-08T15:09:24.876Z,1.84
2023-01-08T15:11:58.583Z,1.80
2023-01-08T15:14:30.996Z,1.84
2023-01-08T15:17:12.804Z,1.79
2023-01-08T15:19:48.468Z,1.80
2023-01-08T15:22:23.896Z,1.73
2023-01-08T15:24:59.477Z,1.66
2023-01-08T15:27:31.449Z,1.66
2023-01-08T15:30:03.747Z,1.58
2023-01-08T15:32:37.263Z,1.63
2023-01-08T15:35:16.535Z,1.55
2023-01-08T15:37:46.321Z,1.54
2023-01-08T15:40:15.713Z,1.48
2023-01-08T15:43:02.890Z,1.39
2023-01-08T15:45:34.914Z,1.33
2023-01-08T15:48:09.081Z,1.52
2023-01-08T15:50:42.882Z,1.48
2023-01-08T15:53:18.705Z,1.48
2023-01-08T15:55:49.262Z,1.67
2023-01-08T15:58:19.915Z,1.53
2023-01-08T16:00:50.370Z,1.40
2023-01-08T16:03:22.869Z,1.34
2023-01-08T16:05:52.169Z,1.23
2023-01-08T16:08:21.902Z,1.12
2023-01-08T16:10:53.486Z,1.11
2023-01-08T16:13:22.977Z,1.10
2023-01-08T16:15:57.431Z,1.01
2023-01-08T16:18:29.784Z,1.00
2023-01-08T16:21:02.516Z,1.02
2023-01-08T16:23:31.988Z,0.97
2023-01-08T16:26:06.112Z,1.03
2023-01-08T16:28:35.240Z,1.06
2023-01-08T16:31:05.555Z,1.04
2023-01-08T16:33:36.221Z,1.07
2023-01-08T16:36:08.657Z,1.13
2023-01-08T16:38:38.467Z,1.08
2023-01-08T16:41:07.711Z,1.16
2023-01-08T16:43:43.178Z,0.97
2023-01-08T16:46:14.009Z,0.98
2023-01-08T16:48:44.953Z,1.08
2023-01-08T16:51:16.005Z,1.12
2023-01-08T16:53:45.352Z,1.15
2023-01-08T16:56:15.903Z,1.24
2023-01-08T16:58:45.582Z,1.26
2023-01-08T17:01:15.727Z,1.32
2023-01-08T17:03:47.496Z,1.32
2023-01-08T17:06:16.956Z,1.30
2023-01-08T17:08:46.577Z,1.31
2023-01-08T17:11:18.805Z,1.31
2023-01-08T17:13:49.308Z,1.37
2023-01-08T17:16:20.235Z,1.44
2023-01-08T17:18:50.920Z,1.38
2023-01-08T17:21:20.989Z,1.51
2023-01-08T17:23:50.516Z,1.43
2023-01-08T17:26:20.032Z,1.39
2023-01-08T17:28:49.364Z,1.40
2023-01-08T17:31:20.962Z,1.36
2023-01-08T17:33:52.748Z,1.38
2023-01-08T17:36:26.121Z,1.38
2023-01-08T17:38:56.395Z,1.38
2023-01-08T17:41:42.651Z,1.37
2023-01-08T17:44:14.289Z,1.38
2023-01-08T17:46:48.126Z,1.38
2023-01-08T17:49:20.098Z,1.41
2023-01-08T17:51:49.285Z,1.43
2023-01-08T17:54:19.848Z,1.51
2023-01-08T17:56:49.620Z,1.57
2023-01-08T17:59:20.728Z,1.55
2023-01-08T18:01:53.498Z,1.57
2023-01-08T18:04:25.823Z,1.67
2023-01-08T18:06:55.151Z,1.57
2023-01-08T18:09:24.459Z,1.46
2023-01-08T18:11:53.818Z,1.41
2023-01-08T18:14:23.016Z,1.42
2023-01-08T18:16:53.105Z,1.41
2023-01-08T18:19:22.547Z,1.36
2023-01-08T18:21:53.451Z,1.34
2023-01-08T18:24:22.745Z,1.34
2023-01-08T18:26:52.740Z,1.33
2023-01-08T18:29:23.562Z,1.35
2023-01-08T18:31:53.072Z,1.25
2023-01-08T18:34:23.570Z,1.24
2023-01-08T18:36:55.322Z,1.22
2023-01-08T18:39:26.606Z,1.26
2023-01-08T18:42:13.614Z,1.25
2023-01-08T18:44:44.851Z,1.31
2023-01-08T18:47:18.472Z,1.25
2023-01-08T18:49:50.205Z,1.25
2023-01-08T18:52:23.652Z,1.29
2023-01-08T18:54:53.299Z,1.26
2023-01-08T18:57:23.653Z,1.25
2023-01-08T18:59:53.388Z,1.23
2023-01-08T19:02:29.181Z,1.25
2023-01-08T19:05:03.603Z,1.11
2023-01-08T19:08:00.974Z,1.03
2023-01-08T19:10:33.761Z,0.93
2023-01-08T19:13:10.574Z,0.87
2023-01-08T19:15:39.964Z,0.74
2023-01-08T19:18:11.139Z,0.72
2023-01-08T19:20:43.332Z,0.71
2023-01-08T19:23:14.995Z,0.74
2023-01-08T19:25:44.577Z,0.85
2023-01-08T19:28:13.892Z,0.80
2023-01-08T19:30:43.426Z,0.68
2023-01-08T19:33:13.305Z,0.79
2023-01-08T19:35:42.934Z,0.89
2023-01-08T19:38:13.700Z,0.66
2023-01-08T19:40:42.983Z,0.67
2023-01-08T19:43:31.775Z,0.83
2023-01-08T19:46:06.481Z,0.64
2023-01-08T19:48:37.620Z,0.55
2023-01-08T19:51:10.713Z,0.58
2023-01-08T19:53:41.739Z,0.51
2023-01-08T19:56:16.397Z,0.44
2023-01-08T19:58:50.233Z,0.41
2023-01-08T20:01:25.894Z,0.37
2023-01-08T20:03:57.537Z,0.31
2023-01-08T20:06:29.605Z,0.21
2023-01-08T20:09:01.752Z,0.13
2023-01-08T20:11:31.733Z,0.10
2023-01-08T20:14:02.974Z,0.25
2023-01-08T20:16:33.354Z,0.29
2023-01-08T20:19:04.722Z,0.20
2023-01-08T20:21:35.236Z,0.16
2023-01-08T20:24:09.804Z,0.05
2023-01-08T20:26:39.727Z,0.18
2023-01-08T20:29:10.462Z,0.38
2023-01-08T20:31:41.322Z,0.28
2023-01-08T20:34:14.518Z,0.33
2023-01-08T20:36:46.523Z,0.33
2023-01-08T20:39:19.072Z,0.29
2023-01-08T20:42:00.807Z,0.22
2023-01-08T20:44:33.261Z,0.23
2023-01-08T20:47:04.143Z,0.37
2023-01-08T20:49:35.471Z,0.39
2023-01-08T20:52:06.375Z,0.47
2023-01-08T20:54:36.997Z,0.52
2023-01-08T20:57:06.341Z,0.63
2023-01-08T20:59:38.367Z,0.65
2023-01-08T21:02:08.102Z,0.61
2023-01-08T21:04:41.546Z,0.51
2023-01-08T21:07:11.069Z,0.55
2023-01-08T21:09:41.921Z,0.48
2023-01-08T21:12:13.512Z,0.33
2023-01-08T21:14:43.579Z,0.20
2023-01-08T21:17:13.293Z,0.17
2023-01-08T21:19:46.186Z,0.16
2023-01-08T21:22:15.818Z,0.08
2023-01-08T21:24:46.935Z,0.11
2023-01-08T21:27:16.665Z,0.17
2023-01-08T21:29:49.081Z,0.16
2023-01-08T21:32:20.346Z,0.18
2023-01-08T21:34:49.751Z,0.26
2023-01-08T21:37:21.627Z,0.26
2023-01-08T21:39:52.306Z,0.24
2023-01-08T21:42:38.959Z,0.23
2023-01-08T21:45:26.045Z,0.25
2023-01-08T21:47:59.919Z,0.30
2023-01-08T21:50:29.119Z,0.31
2023-01-08T21:53:15.985Z,0.29
2023-01-08T21:55:46.821Z,0.25
2023-01-08T21:58:16.507Z,0.25
2023-01-08T22:00:45.906Z,0.36
2023-01-08T22:03:15.249Z,0.33
2023-01-08T22:05:44.524Z,0.30
2023-01-08T22:08:18.485Z,0.42
2023-01-08T22:10:49.251Z,0.57
2023-01-08T22:13:18.593Z,0.53
2023-01-08T22:15:48.027Z,0.67
2023-01-08T22:18:17.237Z,0.79
2023-01-08T22:20:46.825Z,0.67
2023-01-08T22:23:16.148Z,0.75
2023-01-08T22:25:49.478Z,0.54
2023-01-08T22:28:19.089Z,0.56
2023-01-08T22:30:48.534Z,0.56
2023-01-08T22:33:17.993Z,0.43
2023-01-08T22:35:47.763Z,0.46
2023-01-08T22:38:17.319Z,0.43
2023-01-08T22:40:46.540Z,0.40
2023-01-08T22:43:17.264Z,0.34
2023-01-08T22:45:54.076Z,0.57
2023-01-08T22:48:24.074Z,0.74
2023-01-08T22:50:53.529Z,0.67
2023-01-08T22:53:24.444Z,0.80
2023-01-08T22:55:53.651Z,0.80
2023-01-08T22:58:28.775Z,0.71
2023-01-08T23:00:58.180Z,0.69
2023-01-08T23:03:29.280Z,0.61
2023-01-08T23:06:03.003Z,0.63
2023-01-08T23:08:34.231Z,0.58
2023-01-08T23:11:03.881Z,0.60
2023-01-08T23:13:35.874Z,0.54
2023-01-08T23:16:07.782Z,0.57
2023-01-08T23:18:39.885Z,0.59
2023-01-08T23:21:12.548Z,0.63
2023-01-08T23:23:41.781Z,0.66
2023-01-08T23:26:13.166Z,0.72
2023-01-08T23:28:44.000Z,0.75
2023-01-08T23:31:18.337Z,0.78
2023-01-08T23:33:49.810Z,0.88
2023-01-08T23:36:21.395Z,0.87
2023-01-08T23:38:53.603Z,0.75
2023-01-08T23:41:32.040Z,0.79
2023-01-08T23:44:06.812Z,0.74
2023-01-08T23:46:36.567Z,0.69
2023-01-08T23:49:07.327Z,0.68
2023-01-08T23:51:36.715Z,0.69
2023-01-08T23:54:06.104Z,0.85
2023-01-08T23:56:35.432Z,0.77
2023-01-08T23:59:06.387Z,0.91
